createdAt,value
2022-09-28T00:03:00.574Z,9.73
2022-09-28T00:05:50.607Z,9.80
2022-09-28T00:08:47.781Z,9.30
2022-09-28T00:11:51.362Z,9.97
2022-09-28T00:14:48.336Z,9.83
2022-09-28T00:17:51.408Z,9.77
2022-09-28T00:21:05.303Z,11.43
2022-09-28T00:24:17.056Z,12.63
2022-09-28T00:27:10.478Z,13.97
2022-09-28T00:30:07.077Z,15.17
2022-09-28T00:33:11.059Z,17.70
2022-09-28T00:36:17.920Z,17.37
2022-09-28T00:39:09.981Z,17.10
2022-09-28T00:42:13.462Z,18.47
2022-09-28T00:45:07.317Z,22.00
2022-09-28T00:48:12.876Z,20.43
2022-09-28T00:51:15.358Z,20.83
2022-09-28T00:54:15.170Z,21.23
2022-09-28T00:57:19.666Z,21.60
2022-09-28T01:00:24.416Z,19.00
2022-09-28T01:03:22.623Z,20.13
2022-09-28T01:06:36.013Z,17.00
2022-09-28T01:09:27.057Z,18.70
2022-09-28T01:12:20.108Z,17.63
2022-09-28T01:15:23.860Z,18.63
2022-09-28T01:18:19.104Z,18.20
2022-09-28T01:21:17.152Z,18.57
2022-09-28T01:24:28.966Z,19.93
2022-09-28T01:27:25.414Z,18.60
2022-09-28T01:30:25.129Z,19.40
2022-09-28T01:33:24.428Z,17.63
2022-09-28T01:36:19.799Z,16.20
2022-09-28T01:39:22.091Z,17.27
2022-09-28T01:42:17.459Z,15.57
2022-09-28T01:45:22.058Z,16.20
2022-09-28T01:48:26.832Z,16.87
2022-09-28T01:51:28.837Z,16.57
2022-09-28T01:54:24.052Z,16.50
2022-09-28T01:57:16.007Z,16.40
2022-09-28T02:00:08.267Z,14.70
2022-09-28T02:03:06.219Z,15.30
2022-09-28T02:06:07.906Z,17.00
2022-09-28T02:09:07.702Z,15.13
2022-09-28T02:12:03.150Z,16.03
2022-09-28T02:15:03.104Z,15.37
2022-09-28T02:18:01.120Z,14.97
2022-09-28T02:21:18.864Z,13.20
2022-09-28T02:24:20.655Z,11.90
2022-09-28T02:27:17.963Z,12.03
2022-09-28T02:30:10.205Z,11.23
2022-09-28T02:33:08.331Z,12.13
2022-09-28T02:36:13.845Z,12.53
2022-09-28T02:39:19.386Z,12.83
2022-09-28T02:42:15.569Z,13.80
2022-09-28T02:45:42.871Z,14.40
2022-09-28T02:48:44.228Z,15.33
2022-09-28T02:51:51.195Z,15.47
2022-09-28T02:54:56.163Z,14.20
2022-09-28T02:58:10.749Z,14.10
2022-09-28T03:01:09.554Z,14.23
2022-09-28T03:04:06.003Z,14.23
2022-09-28T03:07:08.440Z,13.30
2022-09-28T03:10:08.246Z,14.40
2022-09-28T03:13:08.520Z,14.83
2022-09-28T03:16:14.842Z,15.07
2022-09-28T03:19:19.185Z,15.80
2022-09-28T03:22:18.851Z,13.67
2022-09-28T03:25:23.021Z,14.20
2022-09-28T03:28:20.450Z,14.93
2022-09-28T03:31:11.732Z,13.80
2022-09-28T03:34:11.446Z,14.93
2022-09-28T03:37:08.667Z,13.90
2022-09-28T03:40:06.962Z,13.17
2022-09-28T03:43:11.000Z,13.80
2022-09-28T03:46:06.374Z,13.33
2022-09-28T03:49:00.945Z,14.63
2022-09-28T03:51:54.445Z,14.70
2022-09-28T03:54:49.263Z,16.10
2022-09-28T03:58:01.010Z,14.80
2022-09-28T04:01:05.806Z,15.30
2022-09-28T04:04:10.059Z,17.17
2022-09-28T04:07:01.568Z,17.47
2022-09-28T04:09:52.978Z,17.70
2022-09-28T04:12:55.707Z,17.10
2022-09-28T04:16:01.830Z,18.30
2022-09-28T04:19:06.979Z,18.73
2022-09-28T04:22:00.591Z,18.17
2022-09-28T04:24:54.257Z,18.53
2022-09-28T04:28:08.172Z,18.80
2022-09-28T04:31:04.569Z,18.37
2022-09-28T04:33:55.475Z,19.43
2022-09-28T04:36:49.586Z,20.27
2022-09-28T04:39:48.365Z,20.53
2022-09-28T04:42:48.826Z,18.47
2022-09-28T04:45:57.013Z,21.53
2022-09-28T04:48:50.493Z,21.30
2022-09-28T04:51:52.524Z,21.87
2022-09-28T04:54:46.168Z,22.33
2022-09-28T04:57:43.896Z,23.30
2022-09-28T05:00:47.069Z,23.93
2022-09-28T05:03:56.179Z,21.20
2022-09-28T05:06:52.835Z,23.00
2022-09-28T05:09:57.442Z,22.67
2022-09-28T05:13:00.067Z,21.70
2022-09-28T05:15:58.951Z,21.97
2022-09-28T05:19:08.520Z,22.40
2022-09-28T05:22:06.343Z,21.17
2022-09-28T05:25:12.161Z,20.97
2022-09-28T05:28:09.741Z,22.33
2022-09-28T05:31:07.086Z,21.00
2022-09-28T05:34:14.073Z,21.10
2022-09-28T05:37:08.378Z,23.57
2022-09-28T05:40:13.966Z,22.23
2022-09-28T05:43:09.686Z,22.37
2022-09-28T05:46:01.693Z,23.93
2022-09-28T05:49:06.849Z,24.47
2022-09-28T05:51:59.214Z,23.27
2022-09-28T05:55:04.816Z,24.50
2022-09-28T05:57:58.438Z,22.90
2022-09-28T06:00:53.197Z,23.30
2022-09-28T06:04:01.165Z,23.37
2022-09-28T06:06:55.480Z,22.20
2022-09-28T06:10:02.535Z,22.70
2022-09-28T06:13:01.457Z,22.17
2022-09-28T06:16:07.637Z,23.40
2022-09-28T06:19:11.364Z,23.60
2022-09-28T06:22:02.462Z,22.73
2022-09-28T06:25:02.765Z,24.60
2022-09-28T06:27:58.676Z,25.73
2022-09-28T06:31:02.695Z,23.70
2022-09-28T06:33:52.895Z,24.97
2022-09-28T06:36:47.561Z,22.67
2022-09-28T06:39:45.078Z,22.27
2022-09-28T06:42:36.731Z,22.90
2022-09-28T06:45:29.057Z,21.20
2022-09-28T06:48:25.874Z,31.83
2022-09-28T06:51:18.531Z,21.50
2022-09-28T06:54:10.679Z,19.30
2022-09-28T06:57:03.315Z,20.13
2022-09-28T06:59:59.536Z,20.33
2022-09-28T07:02:53.136Z,19.90
2022-09-28T07:05:45.638Z,18.03
2022-09-28T07:08:34.791Z,20.00
2022-09-28T07:11:31.440Z,19.00
2022-09-28T07:14:47.341Z,17.77
2022-09-28T07:17:59.811Z,16.77
2022-09-28T07:21:00.175Z,17.50
2022-09-28T07:23:56.187Z,19.00
2022-09-28T07:26:50.396Z,19.93
2022-09-28T07:29:45.485Z,19.83
2022-09-28T07:32:40.398Z,19.27
2022-09-28T07:35:35.293Z,20.33
2022-09-28T07:38:32.130Z,19.60
2022-09-28T07:41:35.565Z,18.93
2022-09-28T07:44:42.229Z,17.93
2022-09-28T07:47:45.104Z,18.17
2022-09-28T07:50:54.843Z,19.80
2022-09-28T07:53:50.303Z,18.70
2022-09-28T07:56:43.839Z,20.20
2022-09-28T07:59:34.209Z,18.57
2022-09-28T08:02:39.983Z,18.67
2022-09-28T08:05:32.087Z,18.37
2022-09-28T08:08:46.755Z,18.23
2022-09-28T08:11:45.685Z,20.00
2022-09-28T08:14:44.704Z,20.20
2022-09-28T08:17:38.520Z,18.67
2022-09-28T08:20:51.577Z,16.53
2022-09-28T08:24:01.801Z,18.53
2022-09-28T08:26:56.430Z,17.87
2022-09-28T08:29:47.828Z,18.27
2022-09-28T08:32:45.336Z,18.17
2022-09-28T08:35:37.450Z,18.63
2022-09-28T08:38:42.777Z,18.30
2022-09-28T08:41:51.775Z,17.20
2022-09-28T08:44:51.026Z,19.43
2022-09-28T08:48:07.132Z,20.50
2022-09-28T08:51:03.387Z,17.17
2022-09-28T08:54:12.865Z,18.00
2022-09-28T08:57:15.270Z,17.80
2022-09-28T09:00:12.023Z,18.13
2022-09-28T09:03:12.470Z,20.47
2022-09-28T09:06:14.213Z,17.20
2022-09-28T09:09:16.130Z,19.50
2022-09-28T09:12:22.219Z,17.10
2022-09-28T09:15:38.520Z,19.10
2022-09-28T09:18:37.514Z,20.20
2022-09-28T09:21:40.066Z,17.50
2022-09-28T09:24:40.799Z,17.97
2022-09-28T09:27:55.930Z,17.63
2022-09-28T09:30:57.190Z,16.37
2022-09-28T09:34:00.544Z,16.00
2022-09-28T09:37:04.210Z,18.30
2022-09-28T09:40:10.535Z,21.60
2022-09-28T09:43:12.467Z,21.60
2022-09-28T09:46:11.545Z,21.37
2022-09-28T09:49:13.226Z,21.07
2022-09-28T09:52:13.328Z,22.30
2022-09-28T09:55:17.209Z,16.00
2022-09-28T09:58:20.958Z,12.87
2022-09-28T10:01:21.675Z,14.00
2022-09-28T10:04:25.026Z,14.10
2022-09-28T10:07:21.440Z,12.90
2022-09-28T10:10:18.505Z,12.07
2022-09-28T10:13:34.594Z,12.60
2022-09-28T10:16:26.485Z,11.17
2022-09-28T10:19:17.696Z,8.50
2022-09-28T10:22:14.212Z,7.37
2022-09-28T10:25:10.546Z,8.67
2022-09-28T10:28:08.740Z,7.80
2022-09-28T10:31:03.941Z,6.40
2022-09-28T10:33:56.264Z,7.60
2022-09-28T10:36:55.856Z,11.67
2022-09-28T10:39:50.532Z,14.63
2022-09-28T10:42:41.671Z,17.40
2022-09-28T10:45:37.984Z,17.30
2022-09-28T10:48:39.972Z,18.90
2022-09-28T10:51:47.510Z,18.73
2022-09-28T10:54:41.995Z,19.90
2022-09-28T10:57:43.886Z,16.13
2022-09-28T11:00:43.051Z,16.93
2022-09-28T11:03:52.175Z,17.20
2022-09-28T11:06:56.341Z,16.90
2022-09-28T11:09:51.570Z,16.67
2022-09-28T11:12:45.988Z,15.10
2022-09-28T11:15:43.168Z,13.50
2022-09-28T11:18:37.098Z,11.67
2022-09-28T11:21:43.101Z,10.10
2022-09-28T11:24:42.965Z,6.00
2022-09-28T11:27:46.976Z,4.67
2022-09-28T11:30:47.381Z,4.30
2022-09-28T11:33:47.235Z,3.60
2022-09-28T11:36:58.345Z,4.57
2022-09-28T11:40:02.773Z,3.30
2022-09-28T11:43:03.304Z,4.63
2022-09-28T11:46:03.405Z,4.30
2022-09-28T11:49:01.445Z,3.97
2022-09-28T11:52:08.777Z,5.67
2022-09-28T11:55:09.428Z,4.03
2022-09-28T11:58:06.391Z,4.00
2022-09-28T12:01:06.357Z,3.80
2022-09-28T12:04:11.878Z,3.97
2022-09-28T12:07:14.110Z,4.17
2022-09-28T12:10:21.117Z,2.83
2022-09-28T12:13:26.720Z,3.00
2022-09-28T12:17:04.276Z,3.40
2022-09-28T12:19:59.270Z,2.73
2022-09-28T12:23:06.424Z,2.80
2022-09-28T12:26:18.034Z,3.03
2022-09-28T12:29:20.276Z,2.63
2022-09-28T12:32:23.846Z,2.20
2022-09-28T12:35:24.712Z,2.07
2022-09-28T12:38:40.961Z,1.80
2022-09-28T12:41:42.824Z,2.80
2022-09-28T12:45:01.724Z,2.07
2022-09-28T12:48:10.336Z,2.27
2022-09-28T12:51:06.408Z,2.53
2022-09-28T12:54:07.516Z,2.77
2022-09-28T12:57:18.530Z,2.20
2022-09-28T13:00:10.906Z,2.13
2022-09-28T13:03:16.471Z,2.20
2022-09-28T13:06:28.030Z,2.20
2022-09-28T13:09:24.171Z,4.30
2022-09-28T13:12:25.024Z,4.03
2022-09-28T13:15:34.254Z,3.70
2022-09-28T13:18:28.055Z,3.90
2022-09-28T13:21:37.104Z,4.00
2022-09-28T13:24:47.500Z,3.73
2022-09-28T13:27:45.516Z,4.37
2022-09-28T13:30:42.924Z,4.77
2022-09-28T13:33:40.907Z,5.73
2022-09-28T13:36:48.290Z,4.90
2022-09-28T13:39:43.781Z,3.67
2022-09-28T13:42:54.967Z,4.20
2022-09-28T13:45:57.189Z,3.60
2022-09-28T13:48:55.475Z,3.63
2022-09-28T13:51:57.581Z,3.17
2022-09-28T13:54:55.249Z,3.00
2022-09-28T13:57:53.264Z,2.87
2022-09-28T14:01:05.468Z,2.73
2022-09-28T14:04:00.198Z,2.77
2022-09-28T14:06:55.945Z,3.70
2022-09-28T14:09:55.200Z,2.90
2022-09-28T14:13:26.455Z,3.73
2022-09-28T14:16:24.943Z,3.80
2022-09-28T14:19:24.897Z,3.40
2022-09-28T14:22:23.328Z,3.20
2022-09-28T14:25:18.194Z,2.57
2022-09-28T14:28:39.973Z,2.43
2022-09-28T14:31:38.435Z,2.80
2022-09-28T14:34:38.698Z,3.83
2022-09-28T14:37:50.263Z,4.00
2022-09-28T14:41:17.734Z,3.63
2022-09-28T14:44:16.757Z,4.43
2022-09-28T14:47:29.135Z,3.60
2022-09-28T14:50:25.142Z,4.53
2022-09-28T14:53:20.129Z,3.67
2022-09-28T14:56:27.003Z,4.50
2022-09-28T14:59:28.427Z,3.80
2022-09-28T15:02:26.972Z,4.27
2022-09-28T15:05:20.591Z,4.00
2022-09-28T15:08:19.472Z,4.70
2022-09-28T15:11:13.045Z,4.27
2022-09-28T15:14:14.848Z,4.23
2022-09-28T15:17:15.392Z,4.33
2022-09-28T15:20:19.273Z,5.13
2022-09-28T15:23:25.191Z,5.27
2022-09-28T15:26:23.509Z,6.60
2022-09-28T15:29:25.853Z,7.00
2022-09-28T15:32:37.342Z,5.77
2022-09-28T15:35:33.339Z,5.30
2022-09-28T15:38:29.993Z,25.90
2022-09-28T15:41:24.651Z,9.30
2022-09-28T15:44:40.066Z,6.43
2022-09-28T15:47:35.194Z,5.17
2022-09-28T15:50:27.963Z,6.07
2022-09-28T15:53:27.422Z,6.10
2022-09-28T15:56:21.531Z,5.97
2022-09-28T15:59:25.611Z,6.10
2022-09-28T16:02:26.593Z,7.60
2022-09-28T16:05:37.079Z,8.13
2022-09-28T16:08:48.528Z,8.47
2022-09-28T16:11:40.750Z,10.60
2022-09-28T16:14:45.766Z,10.90
2022-09-28T16:17:40.318Z,12.30
2022-09-28T16:20:32.107Z,10.50
2022-09-28T16:23:36.639Z,10.20
2022-09-28T16:26:53.939Z,10.77
2022-09-28T16:29:57.623Z,9.70
2022-09-28T16:32:55.322Z,8.23
2022-09-28T16:35:53.447Z,10.70
2022-09-28T16:38:47.468Z,12.27
2022-09-28T16:41:43.081Z,11.47
2022-09-28T16:44:37.472Z,11.60
2022-09-28T16:47:35.846Z,12.07
2022-09-28T16:50:30.569Z,9.10
2022-09-28T16:53:41.333Z,8.53
2022-09-28T16:56:33.312Z,6.63
2022-09-28T16:59:45.063Z,5.47
2022-09-28T17:02:47.140Z,6.30
2022-09-28T17:05:53.109Z,6.93
2022-09-28T17:08:57.177Z,6.87
2022-09-28T17:11:57.123Z,6.30
2022-09-28T17:14:56.795Z,5.20
2022-09-28T17:18:02.379Z,6.03
2022-09-28T17:20:58.235Z,5.97
2022-09-28T17:23:50.685Z,6.90
2022-09-28T17:26:54.129Z,6.53
2022-09-28T17:29:44.260Z,5.77
2022-09-28T17:32:51.679Z,6.20
2022-09-28T17:35:51.775Z,5.90
2022-09-28T17:38:57.943Z,6.07
2022-09-28T17:41:52.943Z,7.10
2022-09-28T17:44:48.646Z,6.20
2022-09-28T17:47:42.841Z,6.13
2022-09-28T17:50:33.983Z,6.00
2022-09-28T17:53:34.769Z,5.60
2022-09-28T17:56:32.367Z,5.93
2022-09-28T17:59:26.496Z,5.50
2022-09-28T18:02:20.130Z,5.47
2022-09-28T18:05:23.710Z,5.20
2022-09-28T18:08:19.443Z,5.77
2022-09-28T18:11:17.863Z,6.30
2022-09-28T18:14:11.412Z,5.43
2022-09-28T18:17:17.472Z,5.40
2022-09-28T18:20:13.623Z,5.33
2022-09-28T18:23:15.447Z,5.10
2022-09-28T18:26:09.877Z,5.90
2022-09-28T18:29:11.369Z,5.10
2022-09-28T18:32:16.682Z,5.53
2022-09-28T18:35:09.098Z,5.10
2022-09-28T18:37:58.292Z,5.97
2022-09-28T18:41:11.740Z,5.70
2022-09-28T18:44:09.145Z,5.77
2022-09-28T18:47:02.203Z,4.37
2022-09-28T18:49:57.754Z,4.20
2022-09-28T18:53:14.663Z,4.70
2022-09-28T18:56:18.613Z,4.20
2022-09-28T18:59:12.318Z,3.90
2022-09-28T19:02:15.709Z,4.67
2022-09-28T19:05:11.743Z,4.67
2022-09-28T19:08:11.116Z,3.97
2022-09-28T19:11:17.175Z,4.70
2022-09-28T19:14:20.766Z,4.80
2022-09-28T19:17:25.155Z,4.40
2022-09-28T19:20:17.344Z,5.07
2022-09-28T19:23:21.117Z,5.53
2022-09-28T19:26:30.616Z,5.50
2022-09-28T19:29:24.109Z,4.70
2022-09-28T19:32:18.482Z,4.73
2022-09-28T19:35:14.430Z,4.53
2022-09-28T19:38:12.131Z,4.50
2022-09-28T19:41:08.010Z,5.13
2022-09-28T19:44:26.940Z,4.73
2022-09-28T19:47:32.541Z,4.60
2022-09-28T19:50:36.750Z,4.70
2022-09-28T19:53:30.635Z,4.90
2022-09-28T19:56:21.828Z,5.10
2022-09-28T19:59:29.260Z,4.63
2022-09-28T20:02:35.214Z,5.33
2022-09-28T20:05:41.875Z,5.80
2022-09-28T20:08:34.496Z,5.63
2022-09-28T20:11:26.509Z,4.97
2022-09-28T20:14:34.053Z,5.90
2022-09-28T20:17:44.196Z,6.17
2022-09-28T20:20:49.756Z,5.73
2022-09-28T20:23:53.404Z,6.53
2022-09-28T20:26:52.479Z,6.57
2022-09-28T20:29:58.794Z,6.50
2022-09-28T20:33:02.277Z,7.90
2022-09-28T20:35:53.384Z,7.30
2022-09-28T20:38:56.992Z,6.93
2022-09-28T20:41:59.946Z,6.70
2022-09-28T20:45:17.702Z,7.80
2022-09-28T20:48:23.517Z,8.07
2022-09-28T20:51:20.998Z,7.80
2022-09-28T20:54:12.022Z,7.90
2022-09-28T20:57:09.936Z,6.90
2022-09-28T21:00:07.545Z,7.33
2022-09-28T21:03:11.622Z,7.03
2022-09-28T21:06:08.799Z,7.70
2022-09-28T21:09:10.080Z,7.87
2022-09-28T21:12:05.262Z,8.00
2022-09-28T21:15:05.783Z,6.47
2022-09-28T21:18:07.263Z,7.20
2022-09-28T21:21:10.840Z,6.90
2022-09-28T21:24:01.217Z,7.77
2022-09-28T21:26:52.649Z,6.80
2022-09-28T21:29:58.326Z,7.83
2022-09-28T21:32:52.650Z,6.40
2022-09-28T21:35:50.442Z,6.57
2022-09-28T21:38:55.710Z,7.07
2022-09-28T21:41:52.854Z,7.27
2022-09-28T21:44:48.288Z,7.30
2022-09-28T21:47:45.930Z,7.27
2022-09-28T21:50:50.187Z,6.27
2022-09-28T21:53:49.127Z,6.47
2022-09-28T21:56:43.126Z,6.70
2022-09-28T21:59:47.266Z,6.40
2022-09-28T22:02:43.874Z,6.30
2022-09-28T22:05:38.325Z,6.97
2022-09-28T22:08:41.436Z,6.60
2022-09-28T22:11:46.618Z,6.77
2022-09-28T22:14:54.055Z,6.73
2022-09-28T22:17:52.459Z,7.30
2022-09-28T22:20:46.704Z,6.40
2022-09-28T22:23:47.288Z,6.17
2022-09-28T22:26:48.632Z,6.70
2022-09-28T22:29:45.455Z,6.00
2022-09-28T22:32:36.934Z,7.00
2022-09-28T22:35:34.136Z,6.77
2022-09-28T22:38:32.498Z,7.40
2022-09-28T22:41:27.417Z,6.93
2022-09-28T22:44:25.443Z,6.60
2022-09-28T22:47:22.806Z,7.60
2022-09-28T22:50:17.302Z,6.60
2022-09-28T22:53:21.556Z,7.10
2022-09-28T22:56:19.429Z,6.70
2022-09-28T22:59:23.251Z,8.40
2022-09-28T23:02:31.293Z,8.40
2022-09-28T23:05:22.506Z,7.93
2022-09-28T23:08:17.263Z,8.57
2022-09-28T23:11:11.796Z,8.30
2022-09-28T23:14:04.161Z,7.90
2022-09-28T23:16:57.204Z,8.13
2022-09-28T23:20:06.486Z,8.53
2022-09-28T23:23:10.393Z,8.20
2022-09-28T23:26:14.211Z,9.10
2022-09-28T23:29:09.203Z,8.60
2022-09-28T23:32:12.992Z,10.37
2022-09-28T23:35:21.583Z,9.20
2022-09-28T23:38:13.850Z,11.90
2022-09-28T23:41:10.882Z,10.07
2022-09-28T23:44:07.897Z,9.37
2022-09-28T23:47:00.332Z,9.27
2022-09-28T23:49:55.183Z,10.00
2022-09-28T23:53:05.574Z,8.70
2022-09-28T23:55:55.955Z,9.90
2022-09-28T23:58:55.066Z,9.10
